Time;durP1;ratioP1;P1;durP2;ratioP2;P2;SDS_P1;SDS_P2;PMS_P1;PMS_P2;Temp;Humidity;BMP_temperature;BMP_pressure;BME280_temperature;BME280_humidity;BME280_pressure;Samples;Min_cycle;Max_cycle;Signal;HPM_P1;HPM_P2
2023/03/28 00:01:32;;;;;;;6.43;0.85;;;-0.40;70.40;;;;;;4145533;28;20033;-83
2023/03/28 00:03:38;;;;;;;1.08;0.57;;;-0.40;70.40;;;;;;4146652;28;20034;-84
2023/03/28 00:05:40;;;;;;;3.28;0.60;;;-0.40;70.40;;;;;;4116560;28;20105;-84
2023/03/28 00:08:00;;;;;;;0.68;0.43;;;-0.40;70.40;;;;;;4157829;28;20037;-84
2023/03/28 00:10:02;;;;;;;0.90;0.50;;;-0.40;70.40;;;;;;4158215;28;20037;-85
2023/03/28 00:12:23;;;;;;;1.77;0.55;;;-0.40;70.30;;;;;;4141766;28;20046;-84
2023/03/28 00:14:45;;;;;;;2.20;0.65;;;-0.40;70.40;;;;;;4158858;28;20041;-84
2023/03/28 00:17:06;;;;;;;1.38;0.52;;;-0.40;70.40;;;;;;4156903;28;20034;-84
2023/03/28 00:19:31;;;;;;;3.85;0.65;;;-0.40;70.40;;;;;;4144772;28;20112;-83
2023/03/28 00:21:45;;;;;;;1.63;0.50;;;-0.40;70.40;;;;;;4158979;28;20096;-84
2023/03/28 00:23:51;;;;;;;1.45;0.43;;;-0.50;70.30;;;;;;4125413;28;20029;-83
2023/03/28 00:25:51;;;;;;;1.88;0.70;;;-0.50;70.30;;;;;;4156431;28;20026;-83
2023/03/28 00:27:52;;;;;;;2.20;0.47;;;-0.50;70.30;;;;;;4155845;28;20499;-83
2023/03/28 00:29:52;;;;;;;0.77;0.35;;;-0.50;70.30;;;;;;4128078;28;20022;-84
2023/03/28 00:31:53;;;;;;;1.25;0.40;;;-0.50;70.30;;;;;;4154882;28;20026;-84
2023/03/28 00:33:55;;;;;;;1.55;0.45;;;-0.50;70.40;;;;;;4156437;28;20029;-83
2023/03/28 00:35:55;;;;;;;0.65;0.47;;;-0.50;70.30;;;;;;4157965;28;20044;-84
2023/03/28 00:37:57;;;;;;;1.60;0.57;;;-0.60;70.30;;;;;;4158666;28;20029;-84
2023/03/28 00:39:58;;;;;;;2.70;0.60;;;-0.60;70.20;;;;;;4159473;28;20079;-84
2023/03/28 00:42:00;;;;;;;0.93;0.50;;;-0.60;70.30;;;;;;4139044;28;20124;-83
2023/03/28 00:44:01;;;;;;;1.40;0.40;;;-0.60;70.30;;;;;;4159916;28;20475;-85
2023/03/28 00:46:06;;;;;;;3.13;0.30;;;-0.70;70.20;;;;;;4159632;28;20037;-84
2023/03/28 00:48:12;;;;;;;1.80;0.70;;;-0.70;70.20;;;;;;4161556;28;20040;-84
2023/03/28 00:50:21;;;;;;;1.77;0.40;;;-0.60;70.20;;;;;;4161461;28;20025;-84
2023/03/28 00:52:28;;;;;;;1.15;0.40;;;-0.70;70.20;;;;;;4138953;28;20018;-85
2023/03/28 00:54:49;;;;;;;2.35;0.43;;;-0.70;70.30;;;;;;4158847;28;20022;-86
2023/03/28 00:56:53;;;;;;;1.13;0.50;;;-0.70;70.30;;;;;;4160478;28;20033;-87
2023/03/28 00:58:53;;;;;;;;;;;-0.80;70.20;;;;;;4125371;28;20041;-86
2023/03/28 01:00:56;;;;;;;2.30;0.88;;;-0.70;71.30;;;;;;4156583;28;20658;-85
2023/03/28 01:03:00;;;;;;;1.98;0.50;;;-0.80;70.10;;;;;;4142810;28;20048;-84
2023/03/28 01:05:02;;;;;;;3.72;0.43;;;-0.80;70.20;;;;;;4139904;28;20041;-85
2023/03/28 01:07:35;;;;;;;1.08;0.60;;;-0.80;70.20;;;;;;4160145;28;20025;-85
2023/03/28 01:09:45;;;;;;;1.35;0.60;;;-0.90;70.30;;;;;;4159896;28;20045;-85
2023/03/28 01:11:47;;;;;;;1.90;0.52;;;-0.80;70.50;;;;;;4141595;28;20044;-86
2023/03/28 01:13:51;;;;;;;2.67;0.60;;;-0.80;70.50;;;;;;4142236;28;20429;-86
2023/03/28 01:16:14;;;;;;;4.88;0.93;;;-0.80;70.60;;;;;;4156021;28;20032;-85
2023/03/28 01:18:34;;;;;;;2.05;0.70;;;-0.90;70.60;;;;;;4160465;28;20029;-85
2023/03/28 01:21:04;;;;;;;0.65;0.40;;;-0.90;70.60;;;;;;4143841;28;20037;-85
2023/03/28 01:23:17;;;;;;;2.90;0.70;;;-0.90;70.50;;;;;;4138909;28;20499;-85
2023/03/28 01:25:47;;;;;;;1.52;0.52;;;-0.90;70.60;;;;;;4158079;28;20125;-85
2023/03/28 01:28:28;;;;;;;0.98;0.52;;;-1.00;70.30;;;;;;4160866;28;20038;-85
2023/03/28 01:31:04;;;;;;;0.40;0.30;;;-1.00;70.20;;;;;;4163945;28;20128;-84
2023/03/28 01:33:53;;;;;;;1.98;0.60;;;-1.00;70.20;;;;;;4141546;28;20069;-86
2023/03/28 01:36:16;;;;;;;2.92;0.63;;;-1.10;70.20;;;;;;4158161;28;20112;-86
2023/03/28 01:38:51;;;;;;;4.85;0.60;;;-1.10;70.20;;;;;;4145567;28;20030;-86
2023/03/28 01:41:11;;;;;;;1.50;0.50;;;-1.10;70.20;;;;;;4162785;28;20053;-85
2023/03/28 01:43:41;;;;;;;4.80;0.50;;;-1.10;70.20;;;;;;4163690;28;20037;-85
2023/03/28 01:46:14;;;;;;;3.05;0.90;;;-1.20;70.10;;;;;;4157744;28;20041;-85
2023/03/28 01:48:58;;;;;;;3.57;0.50;;;-1.20;70.20;;;;;;4158844;28;20114;-86
2023/03/28 01:51:43;;;;;;;3.97;0.63;;;-1.20;70.50;;;;;;4144437;28;20381;-85
2023/03/28 01:53:57;;;;;;;1.08;0.50;;;-1.20;70.60;;;;;;4155754;28;20044;-85
2023/03/28 01:56:06;;;;;;;2.20;0.80;;;-1.20;70.80;;;;;;4145123;28;20046;-85
2023/03/28 01:58:16;;;;;;;3.42;0.63;;;-1.20;70.90;;;;;;4160753;28;20032;-86
2023/03/28 02:00:49;;;;;;;2.97;0.80;;;-1.20;71.00;;;;;;4143416;28;20083;-85
2023/03/28 02:03:13;;;;;;;2.15;0.68;;;-1.30;71.10;;;;;;4160647;28;20030;-85
2023/03/28 02:05:18;;;;;;;2.63;0.57;;;-1.30;71.10;;;;;;4159378;28;20021;-85
2023/03/28 02:07:21;;;;;;;3.28;0.60;;;-1.30;71.20;;;;;;4159780;28;20028;-85
2023/03/28 02:09:28;;;;;;;;;;;-1.20;71.20;;;;;;4162887;28;20093;-85
2023/03/28 02:11:31;;;;;;;6.75;0.90;;;-1.20;71.50;;;;;;4143795;28;20344;-86
2023/03/28 02:13:41;;;;;;;2.13;0.65;;;-1.30;71.00;;;;;;4142109;28;20069;-84
2023/03/28 02:15:45;;;;;;;5.53;0.75;;;-1.30;71.00;;;;;;4142001;28;20052;-85
2023/03/28 02:17:57;;;;;;;0.85;0.45;;;-1.20;71.20;;;;;;4142960;28;20018;-85
2023/03/28 02:20:07;;;;;;;3.03;0.75;;;-1.30;71.10;;;;;;4159073;28;20033;-86
2023/03/28 02:22:18;;;;;;;1.00;0.57;;;-1.30;71.20;;;;;;4148909;28;20379;-85
2023/03/28 02:24:26;;;;;;;2.30;0.70;;;-1.40;71.30;;;;;;4168005;28;20108;-84
2023/03/28 02:26:27;;;;;;;3.17;0.77;;;-1.30;71.50;;;;;;4168314;28;20017;-86
2023/03/28 02:28:30;;;;;;;1.58;0.65;;;-1.30;71.50;;;;;;4172137;28;20116;-85
2023/03/28 02:30:38;;;;;;;;;;;-1.30;71.60;;;;;;4141348;28;20061;-86
2023/03/28 02:32:42;;;;;;;1.05;0.50;;;-1.30;71.90;;;;;;4172981;28;19909;-86
2023/03/28 02:34:47;;;;;;;1.50;0.60;;;-1.40;71.50;;;;;;4156322;28;20048;-85
2023/03/28 02:37:15;;;;;;;1.52;0.50;;;-1.30;71.60;;;;;;4173221;28;20021;-85
2023/03/28 02:39:53;;;;;;;1.38;0.55;;;-1.30;71.80;;;;;;4167852;28;20029;-86
2023/03/28 02:42:06;;;;;;;2.00;0.52;;;-1.40;71.80;;;;;;4171019;28;20017;-86
2023/03/28 02:44:42;;;;;;;1.50;0.60;;;-1.40;71.90;;;;;;4175485;28;20041;-86
2023/03/28 02:46:59;;;;;;;2.05;0.95;;;-1.30;72.10;;;;;;4123678;28;20082;-86
2023/03/28 02:49:37;;;;;;;2.92;0.68;;;-1.30;72.00;;;;;;4137729;28;20065;-86
2023/03/28 02:51:57;;;;;;;1.60;0.80;;;-1.30;72.10;;;;;;4174556;28;20057;-85
2023/03/28 02:54:34;;;;;;;3.15;0.90;;;-1.40;72.00;;;;;;4155069;28;20208;-85
2023/03/28 02:56:44;;;;;;;2.78;0.68;;;-1.30;72.20;;;;;;4173142;28;20101;-86
2023/03/28 02:58:58;;;;;;;1.80;0.75;;;-1.40;72.10;;;;;;4174938;28;20028;-84
2023/03/28 03:01:09;;;;;;;3.03;0.82;;;-1.40;72.20;;;;;;4155125;28;20037;-86
2023/03/28 03:03:10;;;;;;;2.90;0.68;;;-1.40;72.10;;;;;;4151129;28;20022;-86
2023/03/28 03:05:11;;;;;;;1.98;0.68;;;-1.40;72.20;;;;;;4160153;28;20030;-86
2023/03/28 03:07:29;;;;;;;3.00;0.70;;;-1.30;72.30;;;;;;4177249;28;20047;-85
2023/03/28 03:09:33;;;;;;;2.17;0.70;;;-1.30;72.30;;;;;;4157211;28;20053;-85
2023/03/28 03:11:34;;;;;;;2.40;0.73;;;-1.30;72.30;;;;;;4150990;28;20041;-85
2023/03/28 03:13:34;;;;;;;2.03;0.80;;;-1.40;72.30;;;;;;4174213;28;20044;-86
2023/03/28 03:15:35;;;;;;;1.98;0.60;;;-1.30;72.50;;;;;;4156534;28;20019;-85
2023/03/28 03:17:39;;;;;;;3.50;0.60;;;-1.30;72.50;;;;;;4173449;28;20025;-85
2023/03/28 03:19:42;;;;;;;5.55;0.55;;;-1.30;72.50;;;;;;4150795;28;20030;-85
2023/03/28 03:21:50;;;;;;;1.20;0.60;;;-1.30;72.50;;;;;;4150372;28;20127;-86
2023/03/28 03:23:51;;;;;;;1.35;0.65;;;-1.30;72.50;;;;;;4142349;28;20022;-85
2023/03/28 03:25:58;;;;;;;1.48;0.65;;;-1.30;72.60;;;;;;4150133;28;20026;-86
2023/03/28 03:28:00;;;;;;;1.42;0.60;;;-1.30;72.60;;;;;;4162164;28;20064;-85
2023/03/28 03:30:08;;;;;;;2.97;1.15;;;-1.30;72.60;;;;;;4152627;28;20025;-84
2023/03/28 03:32:09;;;;;;;3.15;0.60;;;-1.30;72.60;;;;;;4172697;28;20049;-86
2023/03/28 03:34:11;;;;;;;1.60;0.60;;;-1.20;72.70;;;;;;4168707;28;20091;-86
2023/03/28 03:36:16;;;;;;;1.38;0.63;;;-1.20;72.70;;;;;;4147261;28;20040;-85
2023/03/28 03:38:16;;;;;;;4.25;0.82;;;-1.30;72.60;;;;;;4147968;28;20423;-85
2023/03/28 03:40:17;;;;;;;4.22;0.60;;;-1.30;72.70;;;;;;4165264;28;20053;-85
2023/03/28 03:42:21;;;;;;;2.00;0.55;;;-1.30;72.70;;;;;;4149829;28;20125;-85
2023/03/28 03:44:22;;;;;;;4.78;0.82;;;-1.20;72.70;;;;;;4165408;28;20025;-84
2023/03/28 03:46:23;;;;;;;2.67;0.68;;;-1.20;72.70;;;;;;4151720;28;20139;-86
2023/03/28 03:48:26;;;;;;;2.08;0.60;;;-1.30;72.80;;;;;;4161760;28;20029;-85
2023/03/28 03:50:35;;;;;;;3.10;0.70;;;-1.40;72.50;;;;;;4166026;28;20033;-84
2023/03/28 03:52:36;;;;;;;2.45;0.70;;;-1.20;72.70;;;;;;4148098;28;20042;-85
2023/03/28 03:54:38;;;;;;;5.10;0.65;;;-1.20;72.70;;;;;;4162087;28;20098;-85
2023/03/28 03:56:39;;;;;;;4.72;0.70;;;-1.30;72.60;;;;;;4159226;28;20026;-85
2023/03/28 03:58:40;;;;;;;4.22;0.90;;;-1.20;72.60;;;;;;4147390;28;20048;-85
2023/03/28 04:00:43;;;;;;;1.25;0.68;;;-1.30;72.70;;;;;;4161146;28;20113;-85
2023/03/28 04:02:44;;;;;;;4.05;1.00;;;-1.30;72.70;;;;;;4162940;28;20009;-84
2023/03/28 04:04:46;;;;;;;4.47;0.45;;;-1.20;72.80;;;;;;4142050;28;20166;-86
2023/03/28 04:06:50;;;;;;;4.22;0.80;;;-1.30;72.80;;;;;;4161656;28;20148;-86
2023/03/28 04:08:51;;;;;;;1.90;0.90;;;-1.30;72.70;;;;;;4146494;28;20026;-86
2023/03/28 04:11:04;;;;;;;4.10;1.00;;;-1.20;72.80;;;;;;4148263;28;20069;-85
2023/03/28 04:13:05;;;;;;;5.00;1.00;;;-1.30;72.70;;;;;;4147516;28;20022;-86
2023/03/28 04:15:06;;;;;;;3.45;0.93;;;-1.30;72.70;;;;;;4162686;28;20077;-84
2023/03/28 04:17:07;;;;;;;3.63;0.70;;;-1.30;72.60;;;;;;4160447;28;20373;-85
2023/03/28 04:19:12;;;;;;;5.70;0.82;;;-1.20;72.70;;;;;;4163789;28;20018;-85
2023/03/28 04:21:15;;;;;;;2.22;0.70;;;-1.30;72.60;;;;;;4164805;28;20022;-85
2023/03/28 04:23:17;;;;;;;1.63;0.80;;;-1.20;72.60;;;;;;4164317;28;20036;-85
2023/03/28 04:25:18;;;;;;;2.35;0.90;;;-1.20;72.60;;;;;;4144982;28;20587;-85
2023/03/28 04:27:19;;;;;;;1.60;0.68;;;-1.30;72.60;;;;;;4162374;28;20056;-85
2023/03/28 04:29:24;;;;;;;2.75;1.10;;;-1.30;72.60;;;;;;4162750;28;20087;-86
2023/03/28 04:31:28;;;;;;;2.33;0.90;;;-1.40;72.50;;;;;;4147107;28;20026;-85
2023/03/28 04:33:32;;;;;;;3.97;0.82;;;-1.30;72.60;;;;;;4160284;28;20057;-84
2023/03/28 04:35:34;;;;;;;4.78;0.93;;;-1.30;72.60;;;;;;4159419;28;20041;-85
2023/03/28 04:37:36;;;;;;;2.63;0.70;;;-1.40;72.60;;;;;;4162230;28;20018;-85
2023/03/28 04:39:47;;;;;;;2.20;1.00;;;-1.30;72.70;;;;;;4131669;28;20524;-86
2023/03/28 04:41:54;;;;;;;2.63;0.65;;;-1.30;72.60;;;;;;4128757;28;20619;-86
2023/03/28 04:43:55;;;;;;;1.75;0.80;;;-1.30;72.60;;;;;;4146703;28;20117;-85
2023/03/28 04:45:57;;;;;;;3.85;0.80;;;-1.30;72.60;;;;;;4159445;28;20025;-85
2023/03/28 04:47:58;;;;;;;1.65;0.70;;;-1.30;72.60;;;;;;4146276;28;20022;-86
2023/03/28 04:49:59;;;;;;;2.53;0.98;;;-1.30;72.70;;;;;;4161288;28;20029;-86
2023/03/28 04:52:00;;;;;;;1.92;0.70;;;-1.30;72.70;;;;;;4160999;28;20099;-87
2023/03/28 04:54:00;;;;;;;2.88;0.95;;;-1.30;72.70;;;;;;4164472;28;20022;-85
2023/03/28 04:56:01;;;;;;;3.22;1.00;;;-1.40;72.70;;;;;;4164246;28;20044;-85
2023/03/28 04:58:14;;;;;;;2.58;0.73;;;-1.30;72.80;;;;;;4143794;28;20530;-85
2023/03/28 05:00:16;;;;;;;4.32;0.80;;;-1.20;72.90;;;;;;4141725;28;20549;-85
2023/03/28 05:02:17;;;;;;;4.57;1.10;;;-1.40;72.80;;;;;;4157517;28;20053;-85
2023/03/28 05:04:39;;;;;;;2.50;1.00;;;-1.40;72.80;;;;;;4139604;28;20073;-85
2023/03/28 05:06:59;;;;;;;1.63;0.80;;;-1.30;72.90;;;;;;4158177;28;20161;-85
2023/03/28 05:09:00;;;;;;;3.10;1.10;;;-1.30;73.00;;;;;;4142511;28;20037;-85
2023/03/28 05:11:28;;;;;;;2.08;0.80;;;-1.30;73.00;;;;;;4145636;28;21153;-85
2023/03/28 05:13:51;;;;;;;3.40;0.85;;;-1.30;72.90;;;;;;4160300;28;20036;-85
2023/03/28 05:16:12;;;;;;;4.95;1.10;;;-1.30;72.90;;;;;;4162816;28;20032;-85
2023/03/28 05:18:38;;;;;;;17.45;7.38;;;-1.30;73.00;;;;;;4156352;28;20029;-85
2023/03/28 05:20:59;;;;;;;3.58;1.85;;;-1.30;72.90;;;;;;4146490;28;20034;-85
2023/03/28 05:23:04;;;;;;;2.30;1.05;;;-1.30;73.10;;;;;;4168606;28;20028;-85
2023/03/28 05:25:18;;;;;;;3.40;1.08;;;-1.30;73.10;;;;;;4132431;28;20042;-84
2023/03/28 05:27:39;;;;;;;5.53;1.00;;;-1.30;73.20;;;;;;4161094;28;20040;-85
2023/03/28 05:29:42;;;;;;;3.70;1.30;;;-1.20;73.30;;;;;;4139784;28;20030;-84
2023/03/28 05:32:01;;;;;;;10.90;1.55;;;-1.30;73.20;;;;;;4144334;28;20018;-84
2023/03/28 05:34:08;;;;;;;3.75;1.00;;;-1.20;73.40;;;;;;4145590;28;20021;-86
2023/03/28 05:36:32;;;;;;;4.10;0.90;;;-1.10;73.50;;;;;;4143159;28;20041;-84
2023/03/28 05:38:53;;;;;;;;;;;-1.10;73.60;;;;;;4145930;28;20033;-85
2023/03/28 05:41:16;;;;;;;4.50;2.20;;;-1.10;74.10;;;;;;4157969;28;19920;-84
2023/03/28 05:43:37;;;;;;;6.30;1.40;;;-1.10;73.70;;;;;;4143542;28;20077;-85
2023/03/28 05:45:58;;;;;;;4.13;2.35;;;-1.10;73.90;;;;;;4159942;28;20033;-84
2023/03/28 05:48:19;;;;;;;8.32;3.80;;;-1.00;74.10;;;;;;4156891;28;20042;-84
2023/03/28 05:50:40;;;;;;;6.57;2.42;;;-0.90;74.30;;;;;;4142853;28;20041;-84
2023/03/28 05:53:03;;;;;;;9.45;3.15;;;-0.90;74.40;;;;;;4143097;28;20035;-85
2023/03/28 05:55:24;;;;;;;4.93;1.60;;;-0.90;74.50;;;;;;4160560;28;20034;-84
2023/03/28 05:57:39;;;;;;;3.92;1.73;;;-0.80;74.70;;;;;;4147857;28;20042;-84
2023/03/28 05:59:39;;;;;;;1.63;0.90;;;-0.80;74.80;;;;;;4162133;28;20385;-84
2023/03/28 06:01:41;;;;;;;7.53;1.23;;;-0.80;75.00;;;;;;4143334;28;20025;-84
2023/03/28 06:03:45;;;;;;;6.53;1.10;;;-0.60;75.10;;;;;;4144421;28;20034;-86
2023/03/28 06:05:45;;;;;;;7.18;1.30;;;-0.60;75.30;;;;;;4163363;28;20018;-85
2023/03/28 06:07:47;;;;;;;5.78;1.50;;;-0.50;75.30;;;;;;4144659;28;20042;-84
2023/03/28 06:09:47;;;;;;;6.07;1.30;;;-0.50;75.30;;;;;;4142075;28;20037;-84
2023/03/28 06:11:48;;;;;;;3.80;1.02;;;-0.50;75.30;;;;;;4155131;28;20245;-85
2023/03/28 06:13:49;;;;;;;6.10;1.02;;;-0.30;75.60;;;;;;4125741;28;20027;-85
2023/03/28 06:15:50;;;;;;;3.05;1.10;;;-0.40;75.60;;;;;;4138140;28;20034;-84
2023/03/28 06:17:51;;;;;;;5.35;1.52;;;-0.20;75.80;;;;;;4138422;28;20033;-84
2023/03/28 06:19:52;;;;;;;4.43;1.25;;;-0.20;75.90;;;;;;4139677;28;20084;-84
2023/03/28 06:21:52;;;;;;;4.80;1.20;;;-0.10;76.80;;;;;;4134915;28;20128;-84
2023/03/28 06:24:01;;;;;;;4.78;1.20;;;0.00;76.30;;;;;;4161340;28;20018;-84
2023/03/28 06:26:16;;;;;;;4.90;1.55;;;0.10;76.50;;;;;;4140432;28;20527;-84
2023/03/28 06:28:18;;;;;;;4.90;1.27;;;0.10;76.60;;;;;;4140009;28;20045;-84
2023/03/28 06:30:39;;;;;;;15.00;1.73;;;0.20;76.60;;;;;;4159531;28;20037;-84
2023/03/28 06:32:47;;;;;;;6.70;1.30;;;0.30;77.30;;;;;;4158381;28;20048;-84
2023/03/28 06:34:48;;;;;;;3.47;0.90;;;0.30;76.40;;;;;;4140388;28;20022;-84
2023/03/28 06:37:09;;;;;;;7.15;1.23;;;0.40;76.40;;;;;;4144979;28;20022;-83
2023/03/28 06:39:30;;;;;;;8.65;1.33;;;0.50;76.10;;;;;;4158582;28;20038;-84
2023/03/28 06:41:50;;;;;;;6.35;1.23;;;0.60;75.90;;;;;;4156517;28;20080;-83
2023/03/28 06:44:11;;;;;;;5.80;1.27;;;0.60;76.60;;;;;;4145226;28;20116;-83
2023/03/28 06:46:32;;;;;;;4.47;1.20;;;0.70;75.80;;;;;;4155918;28;20073;-85
2023/03/28 06:48:52;;;;;;;3.95;1.02;;;0.70;75.60;;;;;;4156285;28;20068;-83
2023/03/28 06:51:13;;;;;;;10.27;1.02;;;0.80;75.70;;;;;;4143003;28;20076;-84
2023/03/28 06:53:36;;;;;;;1.85;0.73;;;0.90;75.80;;;;;;4160561;28;20025;-84
2023/03/28 06:55:58;;;;;;;6.07;1.30;;;1.10;75.90;;;;;;4156015;28;20044;-84
2023/03/28 06:58:24;;;;;;;4.55;1.23;;;1.20;76.00;;;;;;4156626;28;20087;-84
2023/03/28 07:00:46;;;;;;;10.50;1.60;;;1.10;76.10;;;;;;4161039;28;20049;-84
2023/03/28 07:03:09;;;;;;;7.10;1.40;;;1.30;75.60;;;;;;4159891;28;20037;-84
2023/03/28 07:05:40;;;;;;;2.63;1.10;;;1.40;75.30;;;;;;4158684;28;20053;-84
2023/03/28 07:08:00;;;;;;;4.30;1.33;;;1.40;75.00;;;;;;4170314;28;20045;-84
2023/03/28 07:10:21;;;;;;;4.43;1.40;;;1.50;74.80;;;;;;4169877;28;20022;-84
2023/03/28 07:12:42;;;;;;;11.18;1.42;;;1.70;74.80;;;;;;4156870;28;20040;-84
2023/03/28 07:15:03;;;;;;;2.65;1.08;;;1.60;74.40;;;;;;4161706;28;20043;-84
2023/03/28 07:17:24;;;;;;;7.43;1.45;;;1.70;74.40;;;;;;4155034;28;20126;-84
2023/03/28 07:19:47;;;;;;;4.25;1.30;;;1.80;74.20;;;;;;4160439;28;20034;-83
2023/03/28 07:22:11;;;;;;;9.32;2.00;;;2.00;74.20;;;;;;4145340;28;20065;-83
2023/03/28 07:24:32;;;;;;;;;;;2.00;73.80;;;;;;4163682;28;20288;-84
2023/03/28 07:26:53;;;;;;;5.47;1.48;;;2.00;73.60;;;;;;4160463;28;19913;-84
2023/03/28 07:29:13;;;;;;;4.05;1.73;;;2.20;73.40;;;;;;4160395;28;20049;-85
2023/03/28 07:31:34;;;;;;;3.33;1.35;;;2.20;73.30;;;;;;4157549;28;20041;-84
2023/03/28 07:33:58;;;;;;;5.40;1.60;;;2.20;73.00;;;;;;4165915;28;20034;-83
2023/03/28 07:36:20;;;;;;;5.70;1.45;;;2.30;72.80;;;;;;4166133;28;20033;-84
2023/03/28 07:38:21;;;;;;;3.83;1.20;;;2.40;72.60;;;;;;4145604;28;20276;-84
2023/03/28 07:40:21;;;;;;;3.20;1.30;;;2.40;72.40;;;;;;4141308;28;20018;-84
2023/03/28 07:42:22;;;;;;;4.50;1.13;;;2.50;72.10;;;;;;4166632;28;20026;-83
2023/03/28 07:44:23;;;;;;;2.75;1.23;;;2.50;71.80;;;;;;4163390;28;20018;-83
2023/03/28 07:46:24;;;;;;;6.38;1.80;;;2.50;71.60;;;;;;4164379;28;20029;-84
2023/03/28 07:48:24;;;;;;;5.55;1.35;;;2.60;71.40;;;;;;4163274;28;20030;-83
2023/03/28 07:50:25;;;;;;;4.30;1.20;;;2.60;71.40;;;;;;4161268;28;20037;-84
2023/03/28 07:52:26;;;;;;;3.47;1.25;;;2.70;71.20;;;;;;4142696;28;20038;-84
2023/03/28 07:54:27;;;;;;;4.20;1.23;;;2.70;71.10;;;;;;4167495;28;20036;-83
2023/03/28 07:56:28;;;;;;;3.88;1.33;;;2.80;71.10;;;;;;4165491;28;20078;-84
2023/03/28 07:58:28;;;;;;;5.60;1.05;;;2.90;70.90;;;;;;4161479;28;20033;-83
2023/03/28 08:00:29;;;;;;;3.13;1.25;;;2.90;70.60;;;;;;4163085;28;20034;-84
2023/03/28 08:02:29;;;;;;;3.92;1.30;;;3.00;70.20;;;;;;4143280;28;20077;-84
2023/03/28 08:04:30;;;;;;;4.15;1.08;;;3.00;69.30;;;;;;4163003;28;20026;-83
2023/03/28 08:06:32;;;;;;;6.10;1.80;;;3.00;69.40;;;;;;4131879;28;20630;-83
2023/03/28 08:08:33;;;;;;;3.33;1.15;;;3.10;69.50;;;;;;4163460;28;20048;-83
2023/03/28 08:10:35;;;;;;;4.60;1.08;;;3.10;69.20;;;;;;4161341;28;20310;-84
2023/03/28 08:12:36;;;;;;;5.70;1.33;;;3.20;69.00;;;;;;4142455;28;20026;-83
2023/03/28 08:14:37;;;;;;;5.68;1.42;;;3.20;68.70;;;;;;4162465;28;20346;-83
2023/03/28 08:16:38;;;;;;;5.57;1.20;;;3.30;67.80;;;;;;4163779;28;20041;-84
2023/03/28 08:18:39;;;;;;;2.85;1.00;;;3.30;67.80;;;;;;4161564;28;20025;-85
2023/03/28 08:20:40;;;;;;;8.98;1.75;;;3.40;67.60;;;;;;4148291;28;20038;-84
2023/03/28 08:22:40;;;;;;;6.15;1.13;;;3.40;67.50;;;;;;4160743;28;20021;-84
2023/03/28 08:24:42;;;;;;;9.15;1.13;;;3.50;67.50;;;;;;4162058;28;20017;-84
2023/03/28 08:26:43;;;;;;;7.72;1.20;;;3.50;67.20;;;;;;4163968;28;20036;-83
2023/03/28 08:28:43;;;;;;;9.10;1.75;;;3.60;67.00;;;;;;4142238;28;20053;-83
2023/03/28 08:30:44;;;;;;;3.42;0.85;;;3.60;66.90;;;;;;4161996;28;20036;-84
2023/03/28 08:32:47;;;;;;;3.72;1.40;;;3.70;66.50;;;;;;4160444;28;20030;-84
2023/03/28 08:34:47;;;;;;;6.63;1.48;;;3.70;65.20;;;;;;4162095;28;20064;-84
2023/03/28 08:36:48;;;;;;;5.45;1.40;;;3.80;64.80;;;;;;4146070;28;20026;-84
2023/03/28 08:38:49;;;;;;;6.47;1.25;;;3.80;65.30;;;;;;4145744;28;20025;-84
2023/03/28 08:41:12;;;;;;;5.78;1.20;;;3.80;64.60;;;;;;4162273;28;20025;-84
2023/03/28 08:43:16;;;;;;;4.13;0.95;;;3.90;64.90;;;;;;4145402;28;20028;-84
2023/03/28 08:45:44;;;;;;;3.63;0.98;;;4.00;65.10;;;;;;4159498;28;20769;-85
2023/03/28 08:48:04;;;;;;;2.33;0.85;;;4.00;64.60;;;;;;4141924;28;20040;-85
2023/03/28 08:50:14;;;;;;;6.38;1.00;;;4.10;64.60;;;;;;4163421;28;20545;-85
2023/03/28 08:52:18;;;;;;;5.15;0.85;;;4.20;63.90;;;;;;4143217;28;20528;-85
2023/03/28 08:54:35;;;;;;;2.80;0.82;;;4.20;63.70;;;;;;4138120;28;20029;-84
2023/03/28 08:56:43;;;;;;;3.03;0.75;;;4.30;63.50;;;;;;4156318;28;20035;-84
2023/03/28 08:59:01;;;;;;;3.28;0.47;;;4.30;63.20;;;;;;4137125;28;20101;-84
2023/03/28 09:01:02;;;;;;;1.83;0.43;;;4.40;62.00;;;;;;4137935;28;20084;-85
2023/03/28 09:03:12;;;;;;;2.53;0.47;;;4.40;61.40;;;;;;4160549;28;20044;-84
2023/03/28 09:05:24;;;;;;;5.68;0.52;;;4.50;61.40;;;;;;4126308;28;20061;-84
2023/03/28 09:07:31;;;;;;;2.75;0.70;;;4.60;62.00;;;;;;4163725;28;20037;-84
2023/03/28 09:10:06;;;;;;;1.73;0.40;;;4.70;61.20;;;;;;4146153;28;20038;-83
2023/03/28 09:12:10;;;;;;;1.17;0.35;;;4.80;60.70;;;;;;4167740;28;20200;-83
2023/03/28 09:14:29;;;;;;;4.55;0.47;;;4.80;60.60;;;;;;4168159;28;20032;-84
2023/03/28 09:16:48;;;;;;;1.85;0.45;;;4.90;59.90;;;;;;4142135;28;20041;-83
2023/03/28 09:18:53;;;;;;;2.10;0.57;;;5.00;59.30;;;;;;4157580;28;20026;-83
2023/03/28 09:21:05;;;;;;;2.72;0.73;;;5.10;59.40;;;;;;4138677;28;21035;-83
2023/03/28 09:23:38;;;;;;;4.32;0.60;;;5.10;57.20;;;;;;4141973;28;20025;-83
2023/03/28 09:26:01;;;;;;;3.85;0.68;;;5.20;55.10;;;;;;4150441;28;20705;-83
2023/03/28 09:28:12;;;;;;;5.43;0.75;;;5.30;55.60;;;;;;4133506;28;20034;-83
2023/03/28 09:30:20;;;;;;;2.47;0.65;;;5.30;54.60;;;;;;4155054;28;20033;-83
2023/03/28 09:32:24;;;;;;;1.92;0.65;;;5.40;55.20;;;;;;4160354;28;20021;-83
2023/03/28 09:34:33;;;;;;;3.08;0.68;;;5.40;55.60;;;;;;4140726;28;20036;-82
2023/03/28 09:36:42;;;;;;;1.52;0.50;;;5.50;57.00;;;;;;4155890;28;20033;-82
2023/03/28 09:38:48;;;;;;;1.00;0.70;;;5.60;56.10;;;;;;4159569;28;20098;-84
2023/03/28 09:40:52;;;;;;;6.32;1.00;;;5.60;55.10;;;;;;4159281;28;20029;-83
2023/03/28 09:42:56;;;;;;;2.00;0.57;;;5.70;54.80;;;;;;4160235;28;20025;-82
2023/03/28 09:45:06;;;;;;;5.35;0.65;;;5.80;55.00;;;;;;4159874;28;20049;-83
2023/03/28 09:47:13;;;;;;;2.85;0.70;;;5.80;55.10;;;;;;4139043;28;21358;-83
2023/03/28 09:49:17;;;;;;;4.63;0.75;;;5.90;55.20;;;;;;4157889;28;20080;-83
2023/03/28 09:51:19;;;;;;;3.35;0.45;;;6.00;55.20;;;;;;4142190;28;20125;-83
2023/03/28 09:53:30;;;;;;;2.75;0.60;;;6.10;55.20;;;;;;4144316;28;20022;-84
2023/03/28 09:55:33;;;;;;;2.60;0.70;;;6.10;54.80;;;;;;4158312;28;20092;-82
2023/03/28 09:58:00;;;;;;;2.20;0.40;;;6.20;54.70;;;;;;4160906;28;20030;-83
2023/03/28 10:00:06;;;;;;;2.13;0.55;;;6.30;53.40;;;;;;4161163;28;20034;-83
2023/03/28 10:02:25;;;;;;;6.15;0.73;;;6.40;53.50;;;;;;4131452;28;20117;-83
2023/03/28 10:04:36;;;;;;;4.65;0.82;;;6.50;53.00;;;;;;4142570;28;20627;-84
2023/03/28 10:06:41;;;;;;;1.60;0.40;;;6.50;52.20;;;;;;4160032;28;20036;-83
2023/03/28 10:08:41;;;;;;;5.22;0.60;;;6.60;51.90;;;;;;4211286;22;20061;-83
2023/03/28 10:10:42;;;;;;;2.65;0.57;;;6.60;51.80;;;;;;4143295;28;20021;-83
2023/03/28 10:12:56;;;;;;;3.13;0.45;;;6.60;51.50;;;;;;4160989;28;20113;-85
2023/03/28 10:15:03;;;;;;;3.38;0.80;;;6.70;51.30;;;;;;4129691;28;20015;-84
2023/03/28 10:17:44;;;;;;;1.70;0.43;;;6.70;51.90;;;;;;4163240;28;20032;-83
2023/03/28 10:19:46;;;;;;;2.85;0.90;;;6.70;51.60;;;;;;4146860;28;20038;-84
2023/03/28 10:22:24;;;;;;;1.95;0.57;;;6.80;52.20;;;;;;4147651;28;20065;-83
2023/03/28 10:24:34;;;;;;;6.28;0.55;;;6.80;51.80;;;;;;4153772;28;20532;-84
2023/03/28 10:26:35;;;;;;;2.38;0.73;;;6.90;52.10;;;;;;4151994;28;20053;-84
2023/03/28 10:28:37;;;;;;;5.35;0.90;;;6.90;52.90;;;;;;4129933;28;20050;-85
2023/03/28 10:30:40;;;;;;;2.97;0.67;;;6.90;52.10;;;;;;4115376;28;20058;-84
2023/03/28 10:32:40;;;;;;;2.85;0.80;;;7.00;52.30;;;;;;4147862;28;20061;-84
2023/03/28 10:35:01;;;;;;;1.52;0.47;;;7.00;52.10;;;;;;4136195;28;20030;-84
2023/03/28 10:37:30;;;;;;;3.17;0.75;;;7.10;51.50;;;;;;4135245;28;20041;-83
2023/03/28 10:39:32;;;;;;;6.32;1.08;;;7.10;50.40;;;;;;4110198;28;20082;-84
2023/03/28 10:41:34;;;;;;;3.25;0.55;;;7.10;50.90;;;;;;4128884;28;20042;-84
2023/03/28 10:43:55;;;;;;;3.42;0.93;;;7.20;51.30;;;;;;4143171;28;20030;-83
2023/03/28 10:46:06;;;;;;;3.67;0.60;;;7.20;52.10;;;;;;4146783;28;20033;-84
2023/03/28 10:48:30;;;;;;;5.53;0.73;;;7.20;51.40;;;;;;4150829;28;20042;-83
2023/03/28 10:50:55;;;;;;;2.70;0.65;;;7.30;51.80;;;;;;4142132;28;20033;-84
2023/03/28 10:53:40;;;;;;;3.92;0.73;;;7.30;51.80;;;;;;4134579;28;20011;-83
2023/03/28 10:56:13;;;;;;;8.23;0.95;;;7.40;51.20;;;;;;4130577;28;20603;-84
2023/03/28 10:58:50;;;;;;;6.93;0.80;;;7.40;51.20;;;;;;4141411;28;20034;-83
2023/03/28 11:01:28;;;;;;;6.43;0.57;;;7.40;50.90;;;;;;4137580;28;20034;-84
2023/03/28 11:03:45;;;;;;;2.20;0.43;;;7.50;51.00;;;;;;4129100;28;20031;-83
2023/03/28 11:06:03;;;;;;;3.65;0.90;;;7.50;50.70;;;;;;4142678;28;20392;-84
2023/03/28 11:08:28;;;;;;;4.35;0.80;;;7.50;50.20;;;;;;4145740;28;20080;-83
2023/03/28 11:10:55;;;;;;;7.88;0.80;;;7.50;50.10;;;;;;4142516;28;20212;-83
2023/03/28 11:13:28;;;;;;;5.20;1.00;;;7.50;50.60;;;;;;4093167;28;20035;-84
2023/03/28 11:15:46;;;;;;;10.70;1.00;;;7.60;50.20;;;;;;4109042;28;20066;-83
2023/03/28 11:18:02;;;;;;;7.78;0.65;;;7.60;49.60;;;;;;4095095;28;20175;-83
2023/03/28 11:26:38;;;;;;;8.55;0.90;;;7.70;50.80;;;;;;4108797;28;19949;-83
2023/03/28 11:29:09;;;;;;;6.75;1.35;;;7.70;51.40;;;;;;4109141;28;20039;-84
2023/03/28 11:31:43;;;;;;;6.43;1.10;;;7.70;51.10;;;;;;4096214;28;20117;-83
2023/03/28 11:34:05;;;;;;;9.60;2.15;;;7.70;51.00;;;;;;4092263;28;20027;-83
2023/03/28 11:36:34;;;;;;;5.55;1.27;;;7.80;51.00;;;;;;4094801;28;20700;-83